sensor_id;sensor_type;location;lat;lon;timestamp;P1;durP1;ratioP1;P2;durP2;ratioP2
22236;SDS011;11287;48.122;11.536;2024-01-16T00:02:19;2.15;;;1.38;;
22236;SDS011;11287;48.122;11.536;2024-01-16T00:04:44;2.38;;;1.42;;
22236;SDS011;11287;48.122;11.536;2024-01-16T00:07:09;3.20;;;1.58;;
22236;SDS011;11287;48.122;11.536;2024-01-16T00:09:35;2.13;;;1.58;;
22236;SDS011;11287;48.122;11.536;2024-01-16T00:12:01;2.35;;;1.20;;
22236;SDS011;11287;48.122;11.536;2024-01-16T00:14:27;1.73;;;1.48;;
22236;SDS011;11287;48.122;11.536;2024-01-16T00:16:52;1.90;;;1.27;;
22236;SDS011;11287;48.122;11.536;2024-01-16T00:19:18;3.53;;;1.50;;
22236;SDS011;11287;48.122;11.536;2024-01-16T00:21:44;6.65;;;1.70;;
22236;SDS011;11287;48.122;11.536;2024-01-16T00:24:13;1.92;;;1.27;;
22236;SDS011;11287;48.122;11.536;2024-01-16T00:26:38;2.58;;;1.63;;
22236;SDS011;11287;48.122;11.536;2024-01-16T00:29:04;5.72;;;1.40;;
22236;SDS011;11287;48.122;11.536;2024-01-16T00:31:29;3.50;;;1.50;;
22236;SDS011;11287;48.122;11.536;2024-01-16T00:33:54;2.90;;;1.38;;
22236;SDS011;11287;48.122;11.536;2024-01-16T00:36:20;3.70;;;1.20;;
22236;SDS011;11287;48.122;11.536;2024-01-16T00:38:45;4.28;;;1.30;;
22236;SDS011;11287;48.122;11.536;2024-01-16T00:41:11;3.47;;;1.65;;
22236;SDS011;11287;48.122;11.536;2024-01-16T00:43:37;2.97;;;1.30;;
22236;SDS011;11287;48.122;11.536;2024-01-16T00:46:03;2.15;;;1.42;;
22236;SDS011;11287;48.122;11.536;2024-01-16T00:48:28;3.60;;;1.60;;
22236;SDS011;11287;48.122;11.536;2024-01-16T00:50:54;2.75;;;1.20;;
22236;SDS011;11287;48.122;11.536;2024-01-16T00:53:19;1.67;;;1.27;;
22236;SDS011;11287;48.122;11.536;2024-01-16T00:55:44;3.42;;;1.40;;
22236;SDS011;11287;48.122;11.536;2024-01-16T00:58:09;2.13;;;1.30;;
22236;SDS011;11287;48.122;11.536;2024-01-16T01:00:35;1.15;;;0.95;;
22236;SDS011;11287;48.122;11.536;2024-01-16T01:03:02;1.77;;;1.17;;
22236;SDS011;11287;48.122;11.536;2024-01-16T01:05:28;2.00;;;1.17;;
22236;SDS011;11287;48.122;11.536;2024-01-16T01:07:57;2.45;;;1.25;;
22236;SDS011;11287;48.122;11.536;2024-01-16T01:10:23;2.60;;;1.30;;
22236;SDS011;11287;48.122;11.536;2024-01-16T01:12:48;1.88;;;1.33;;
22236;SDS011;11287;48.122;11.536;2024-01-16T01:15:14;3.05;;;1.60;;
22236;SDS011;11287;48.122;11.536;2024-01-16T01:17:40;1.50;;;1.00;;
22236;SDS011;11287;48.122;11.536;2024-01-16T01:20:06;1.73;;;1.23;;
22236;SDS011;11287;48.122;11.536;2024-01-16T01:22:33;2.88;;;1.30;;
22236;SDS011;11287;48.122;11.536;2024-01-16T01:24:58;2.20;;;1.00;;
22236;SDS011;11287;48.122;11.536;2024-01-16T01:27:23;2.47;;;1.38;;
22236;SDS011;11287;48.122;11.536;2024-01-16T01:29:48;2.28;;;1.20;;
22236;SDS011;11287;48.122;11.536;2024-01-16T01:32:14;2.67;;;1.17;;
22236;SDS011;11287;48.122;11.536;2024-01-16T01:34:41;3.05;;;1.52;;
22236;SDS011;11287;48.122;11.536;2024-01-16T01:37:06;3.63;;;1.42;;
22236;SDS011;11287;48.122;11.536;2024-01-16T01:39:32;2.33;;;1.38;;
22236;SDS011;11287;48.122;11.536;2024-01-16T01:41:57;1.50;;;1.00;;
22236;SDS011;11287;48.122;11.536;2024-01-16T01:44:22;1.40;;;1.30;;
22236;SDS011;11287;48.122;11.536;2024-01-16T01:46:49;3.20;;;1.45;;
22236;SDS011;11287;48.122;11.536;2024-01-16T01:49:15;1.70;;;1.20;;
22236;SDS011;11287;48.122;11.536;2024-01-16T01:51:40;2.92;;;1.52;;
22236;SDS011;11287;48.122;11.536;2024-01-16T01:54:06;2.20;;;1.38;;
22236;SDS011;11287;48.122;11.536;2024-01-16T01:56:32;2.90;;;1.40;;
22236;SDS011;11287;48.122;11.536;2024-01-16T01:58:57;2.05;;;1.60;;
22236;SDS011;11287;48.122;11.536;2024-01-16T02:01:26;2.83;;;1.75;;
22236;SDS011;11287;48.122;11.536;2024-01-16T02:03:53;4.22;;;1.40;;
22236;SDS011;11287;48.122;11.536;2024-01-16T02:06:20;5.53;;;1.60;;
22236;SDS011;11287;48.122;11.536;2024-01-16T02:08:45;1.70;;;1.30;;
22236;SDS011;11287;48.122;11.536;2024-01-16T02:11:10;1.65;;;1.38;;
22236;SDS011;11287;48.122;11.536;2024-01-16T02:13:36;1.98;;;1.00;;
22236;SDS011;11287;48.122;11.536;2024-01-16T02:16:01;2.45;;;1.38;;
22236;SDS011;11287;48.122;11.536;2024-01-16T02:18:28;1.08;;;0.73;;
22236;SDS011;11287;48.122;11.536;2024-01-16T02:20:53;2.67;;;1.10;;
22236;SDS011;11287;48.122;11.536;2024-01-16T02:23:29;2.15;;;1.48;;
22236;SDS011;11287;48.122;11.536;2024-01-16T02:25:56;4.13;;;1.10;;
22236;SDS011;11287;48.122;11.536;2024-01-16T02:28:21;3.15;;;1.45;;
22236;SDS011;11287;48.122;11.536;2024-01-16T02:30:46;3.03;;;1.42;;
22236;SDS011;11287;48.122;11.536;2024-01-16T02:33:12;2.63;;;1.25;;
22236;SDS011;11287;48.122;11.536;2024-01-16T02:35:37;2.17;;;1.35;;
22236;SDS011;11287;48.122;11.536;2024-01-16T02:38:02;2.22;;;1.30;;
22236;SDS011;11287;48.122;11.536;2024-01-16T02:40:28;2.20;;;1.35;;
22236;SDS011;11287;48.122;11.536;2024-01-16T02:42:54;1.88;;;1.27;;
22236;SDS011;11287;48.122;11.536;2024-01-16T02:45:19;3.38;;;1.42;;
22236;SDS011;11287;48.122;11.536;2024-01-16T02:47:45;3.00;;;1.15;;
22236;SDS011;11287;48.122;11.536;2024-01-16T02:50:10;3.10;;;1.38;;
22236;SDS011;11287;48.122;11.536;2024-01-16T02:52:35;2.05;;;1.30;;
22236;SDS011;11287;48.122;11.536;2024-01-16T02:55:01;1.45;;;1.08;;
22236;SDS011;11287;48.122;11.536;2024-01-16T02:57:26;2.25;;;1.35;;
22236;SDS011;11287;48.122;11.536;2024-01-16T02:59:51;2.30;;;1.20;;
22236;SDS011;11287;48.122;11.536;2024-01-16T03:02:17;1.70;;;1.15;;
22236;SDS011;11287;48.122;11.536;2024-01-16T03:04:42;2.05;;;1.17;;
22236;SDS011;11287;48.122;11.536;2024-01-16T03:07:07;1.92;;;1.40;;
22236;SDS011;11287;48.122;11.536;2024-01-16T03:09:33;1.98;;;1.45;;
22236;SDS011;11287;48.122;11.536;2024-01-16T03:11:59;2.50;;;0.88;;
22236;SDS011;11287;48.122;11.536;2024-01-16T03:14:24;4.13;;;1.33;;
22236;SDS011;11287;48.122;11.536;2024-01-16T03:16:49;2.47;;;1.58;;
22236;SDS011;11287;48.122;11.536;2024-01-16T03:19:15;6.25;;;1.40;;
22236;SDS011;11287;48.122;11.536;2024-01-16T03:21:40;1.80;;;1.50;;
22236;SDS011;11287;48.122;11.536;2024-01-16T03:24:06;3.05;;;1.33;;
22236;SDS011;11287;48.122;11.536;2024-01-16T03:26:32;2.65;;;1.40;;
22236;SDS011;11287;48.122;11.536;2024-01-16T03:29:00;4.55;;;1.50;;
22236;SDS011;11287;48.122;11.536;2024-01-16T03:31:25;5.00;;;1.92;;
22236;SDS011;11287;48.122;11.536;2024-01-16T03:33:51;3.58;;;1.65;;
22236;SDS011;11287;48.122;11.536;2024-01-16T03:36:16;6.35;;;2.30;;
22236;SDS011;11287;48.122;11.536;2024-01-16T03:38:42;4.70;;;1.60;;
22236;SDS011;11287;48.122;11.536;2024-01-16T03:41:07;2.33;;;1.55;;
22236;SDS011;11287;48.122;11.536;2024-01-16T03:43:33;3.47;;;1.50;;
22236;SDS011;11287;48.122;11.536;2024-01-16T03:45:59;3.72;;;1.58;;
22236;SDS011;11287;48.122;11.536;2024-01-16T03:48:25;6.72;;;1.52;;
22236;SDS011;11287;48.122;11.536;2024-01-16T03:50:50;2.92;;;1.30;;
22236;SDS011;11287;48.122;11.536;2024-01-16T03:53:15;3.58;;;1.42;;
22236;SDS011;11287;48.122;11.536;2024-01-16T03:55:40;1.48;;;1.23;;
22236;SDS011;11287;48.122;11.536;2024-01-16T03:58:06;6.68;;;1.55;;
22236;SDS011;11287;48.122;11.536;2024-01-16T04:00:31;3.65;;;1.63;;
22236;SDS011;11287;48.122;11.536;2024-01-16T04:02:56;1.92;;;1.30;;
22236;SDS011;11287;48.122;11.536;2024-01-16T04:05:22;2.83;;;1.63;;
22236;SDS011;11287;48.122;11.536;2024-01-16T04:07:47;3.05;;;1.42;;
22236;SDS011;11287;48.122;11.536;2024-01-16T04:10:12;2.58;;;1.50;;
22236;SDS011;11287;48.122;11.536;2024-01-16T04:12:38;2.53;;;1.50;;
22236;SDS011;11287;48.122;11.536;2024-01-16T04:15:03;1.77;;;1.40;;
22236;SDS011;11287;48.122;11.536;2024-01-16T04:17:29;4.07;;;1.90;;
22236;SDS011;11287;48.122;11.536;2024-01-16T04:19:54;2.88;;;1.85;;
22236;SDS011;11287;48.122;11.536;2024-01-16T04:22:19;2.35;;;1.40;;
22236;SDS011;11287;48.122;11.536;2024-01-16T04:24:45;1.98;;;1.50;;
22236;SDS011;11287;48.122;11.536;2024-01-16T04:27:11;2.85;;;1.58;;
22236;SDS011;11287;48.122;11.536;2024-01-16T04:29:36;6.80;;;1.42;;
22236;SDS011;11287;48.122;11.536;2024-01-16T04:32:02;1.80;;;1.25;;
22236;SDS011;11287;48.122;11.536;2024-01-16T04:34:28;3.38;;;1.88;;
22236;SDS011;11287;48.122;11.536;2024-01-16T04:36:53;2.58;;;1.60;;
22236;SDS011;11287;48.122;11.536;2024-01-16T04:39:18;3.15;;;1.55;;
22236;SDS011;11287;48.122;11.536;2024-01-16T04:41:44;2.67;;;1.30;;
22236;SDS011;11287;48.122;11.536;2024-01-16T04:44:09;2.22;;;1.52;;
22236;SDS011;11287;48.122;11.536;2024-01-16T04:46:34;2.60;;;1.40;;
22236;SDS011;11287;48.122;11.536;2024-01-16T04:48:59;1.35;;;0.93;;
22236;SDS011;11287;48.122;11.536;2024-01-16T04:51:25;3.50;;;1.33;;
22236;SDS011;11287;48.122;11.536;2024-01-16T04:53:50;2.85;;;1.65;;
22236;SDS011;11287;48.122;11.536;2024-01-16T04:56:15;2.85;;;1.77;;
22236;SDS011;11287;48.122;11.536;2024-01-16T04:58:41;4.35;;;1.75;;
22236;SDS011;11287;48.122;11.536;2024-01-16T05:01:06;2.17;;;1.38;;
22236;SDS011;11287;48.122;11.536;2024-01-16T05:03:31;4.82;;;1.55;;
22236;SDS011;11287;48.122;11.536;2024-01-16T05:05:57;3.10;;;1.50;;
22236;SDS011;11287;48.122;11.536;2024-01-16T05:08:22;2.28;;;1.40;;
22236;SDS011;11287;48.122;11.536;2024-01-16T05:10:48;3.03;;;1.30;;
22236;SDS011;11287;48.122;11.536;2024-01-16T05:13:14;2.50;;;1.30;;
22236;SDS011;11287;48.122;11.536;2024-01-16T05:15:40;2.42;;;1.58;;
22236;SDS011;11287;48.122;11.536;2024-01-16T05:18:05;4.97;;;1.42;;
22236;SDS011;11287;48.122;11.536;2024-01-16T05:20:31;3.58;;;1.67;;
22236;SDS011;11287;48.122;11.536;2024-01-16T05:22:56;2.78;;;1.27;;
22236;SDS011;11287;48.122;11.536;2024-01-16T05:25:21;3.30;;;1.73;;
22236;SDS011;11287;48.122;11.536;2024-01-16T05:27:47;2.22;;;1.30;;
22236;SDS011;11287;48.122;11.536;2024-01-16T05:30:12;3.97;;;1.73;;
22236;SDS011;11287;48.122;11.536;2024-01-16T05:32:38;1.50;;;1.40;;
22236;SDS011;11287;48.122;11.536;2024-01-16T05:35:04;1.95;;;1.40;;
22236;SDS011;11287;48.122;11.536;2024-01-16T05:37:30;2.13;;;1.45;;
22236;SDS011;11287;48.122;11.536;2024-01-16T05:39:55;3.03;;;1.92;;
22236;SDS011;11287;48.122;11.536;2024-01-16T05:42:20;3.90;;;1.58;;
22236;SDS011;11287;48.122;11.536;2024-01-16T05:44:46;5.78;;;2.17;;
22236;SDS011;11287;48.122;11.536;2024-01-16T05:47:11;2.20;;;1.30;;
22236;SDS011;11287;48.122;11.536;2024-01-16T05:49:36;3.45;;;1.52;;
22236;SDS011;11287;48.122;11.536;2024-01-16T05:52:02;4.03;;;1.80;;
22236;SDS011;11287;48.122;11.536;2024-01-16T05:54:27;2.10;;;1.70;;
22236;SDS011;11287;48.122;11.536;2024-01-16T05:56:52;4.13;;;1.67;;
22236;SDS011;11287;48.122;11.536;2024-01-16T05:59:18;1.75;;;1.23;;
22236;SDS011;11287;48.122;11.536;2024-01-16T06:01:43;1.70;;;1.40;;
22236;SDS011;11287;48.122;11.536;2024-01-16T06:04:08;2.25;;;1.50;;
22236;SDS011;11287;48.122;11.536;2024-01-16T06:06:33;5.80;;;1.63;;
22236;SDS011;11287;48.122;11.536;2024-01-16T06:08:59;2.30;;;1.30;;
22236;SDS011;11287;48.122;11.536;2024-01-16T06:11:32;1.83;;;1.38;;
22236;SDS011;11287;48.122;11.536;2024-01-16T06:13:58;4.60;;;1.63;;
22236;SDS011;11287;48.122;11.536;2024-01-16T06:16:24;1.90;;;1.15;;
22236;SDS011;11287;48.122;11.536;2024-01-16T06:18:50;2.42;;;1.58;;
22236;SDS011;11287;48.122;11.536;2024-01-16T06:21:15;3.05;;;1.52;;
22236;SDS011;11287;48.122;11.536;2024-01-16T06:23:41;3.03;;;1.40;;
22236;SDS011;11287;48.122;11.536;2024-01-16T06:26:07;4.28;;;1.65;;
22236;SDS011;11287;48.122;11.536;2024-01-16T06:28:33;1.98;;;1.35;;
22236;SDS011;11287;48.122;11.536;2024-01-16T06:30:58;3.72;;;1.60;;
22236;SDS011;11287;48.122;11.536;2024-01-16T06:33:23;3.83;;;1.63;;
22236;SDS011;11287;48.122;11.536;2024-01-16T06:35:49;5.55;;;1.50;;
22236;SDS011;11287;48.122;11.536;2024-01-16T06:38:14;3.78;;;1.35;;
22236;SDS011;11287;48.122;11.536;2024-01-16T06:40:39;3.63;;;1.50;;
22236;SDS011;11287;48.122;11.536;2024-01-16T06:43:04;2.13;;;1.33;;
22236;SDS011;11287;48.122;11.536;2024-01-16T06:45:31;3.08;;;1.48;;
22236;SDS011;11287;48.122;11.536;2024-01-16T06:47:56;5.95;;;1.77;;
22236;SDS011;11287;48.122;11.536;2024-01-16T06:50:22;6.47;;;1.67;;
22236;SDS011;11287;48.122;11.536;2024-01-16T06:52:47;5.13;;;1.60;;
22236;SDS011;11287;48.122;11.536;2024-01-16T06:55:12;4.47;;;1.35;;
22236;SDS011;11287;48.122;11.536;2024-01-16T06:57:37;5.20;;;1.60;;
22236;SDS011;11287;48.122;11.536;2024-01-16T07:00:03;5.80;;;1.80;;
22236;SDS011;11287;48.122;11.536;2024-01-16T07:02:32;4.47;;;1.73;;
22236;SDS011;11287;48.122;11.536;2024-01-16T07:04:57;5.45;;;2.20;;
22236;SDS011;11287;48.122;11.536;2024-01-16T07:07:23;4.00;;;1.70;;
22236;SDS011;11287;48.122;11.536;2024-01-16T07:09:49;6.43;;;2.00;;
22236;SDS011;11287;48.122;11.536;2024-01-16T07:12:15;2.00;;;1.40;;
22236;SDS011;11287;48.122;11.536;2024-01-16T07:14:40;3.67;;;1.80;;
22236;SDS011;11287;48.122;11.536;2024-01-16T07:17:05;3.45;;;2.00;;
22236;SDS011;11287;48.122;11.536;2024-01-16T07:19:32;3.03;;;1.77;;
22236;SDS011;11287;48.122;11.536;2024-01-16T07:21:57;10.38;;;2.10;;
22236;SDS011;11287;48.122;11.536;2024-01-16T07:24:23;2.83;;;1.70;;
22236;SDS011;11287;48.122;11.536;2024-01-16T07:26:49;7.50;;;2.63;;
22236;SDS011;11287;48.122;11.536;2024-01-16T07:29:15;3.13;;;1.70;;
22236;SDS011;11287;48.122;11.536;2024-01-16T07:31:40;3.90;;;2.00;;
22236;SDS011;11287;48.122;11.536;2024-01-16T07:34:06;12.57;;;1.65;;
22236;SDS011;11287;48.122;11.536;2024-01-16T07:36:31;2.33;;;1.42;;
22236;SDS011;11287;48.122;11.536;2024-01-16T07:38:57;1.73;;;1.35;;
22236;SDS011;11287;48.122;11.536;2024-01-16T07:41:22;4.07;;;1.98;;
22236;SDS011;11287;48.122;11.536;2024-01-16T07:43:47;4.22;;;1.65;;
22236;SDS011;11287;48.122;11.536;2024-01-16T07:46:13;5.13;;;2.08;;
22236;SDS011;11287;48.122;11.536;2024-01-16T07:48:38;3.75;;;2.20;;
22236;SDS011;11287;48.122;11.536;2024-01-16T07:51:03;3.55;;;1.83;;
22236;SDS011;11287;48.122;11.536;2024-01-16T07:53:29;4.00;;;2.15;;
22236;SDS011;11287;48.122;11.536;2024-01-16T07:55:54;3.30;;;1.92;;
22236;SDS011;11287;48.122;11.536;2024-01-16T07:58:20;4.35;;;2.38;;
22236;SDS011;11287;48.122;11.536;2024-01-16T08:00:45;4.30;;;2.05;;
22236;SDS011;11287;48.122;11.536;2024-01-16T08:03:10;3.28;;;1.77;;
22236;SDS011;11287;48.122;11.536;2024-01-16T08:05:36;4.80;;;2.47;;
22236;SDS011;11287;48.122;11.536;2024-01-16T08:08:02;2.20;;;1.75;;
22236;SDS011;11287;48.122;11.536;2024-01-16T08:10:28;5.63;;;2.13;;
22236;SDS011;11287;48.122;11.536;2024-01-16T08:12:53;3.53;;;2.13;;
22236;SDS011;11287;48.122;11.536;2024-01-16T08:15:18;5.88;;;2.42;;
22236;SDS011;11287;48.122;11.536;2024-01-16T08:17:43;4.78;;;2.20;;
22236;SDS011;11287;48.122;11.536;2024-01-16T08:20:09;3.05;;;2.05;;
22236;SDS011;11287;48.122;11.536;2024-01-16T08:22:35;3.40;;;2.00;;
22236;SDS011;11287;48.122;11.536;2024-01-16T08:25:01;5.85;;;2.42;;
22236;SDS011;11287;48.122;11.536;2024-01-16T08:27:27;3.97;;;2.15;;
22236;SDS011;11287;48.122;11.536;2024-01-16T08:29:54;4.70;;;2.40;;
22236;SDS011;11287;48.122;11.536;2024-01-16T08:32:19;4.18;;;2.30;;
22236;SDS011;11287;48.122;11.536;2024-01-16T08:34:44;4.47;;;1.98;;
22236;SDS011;11287;48.122;11.536;2024-01-16T08:37:09;6.30;;;2.20;;
22236;SDS011;11287;48.122;11.536;2024-01-16T08:39:35;4.40;;;2.67;;
22236;SDS011;11287;48.122;11.536;2024-01-16T08:42:01;7.13;;;2.80;;
22236;SDS011;11287;48.122;11.536;2024-01-16T08:44:29;7.60;;;2.58;;
22236;SDS011;11287;48.122;11.536;2024-01-16T08:46:54;5.88;;;2.30;;
22236;SDS011;11287;48.122;11.536;2024-01-16T08:49:20;7.43;;;2.50;;
22236;SDS011;11287;48.122;11.536;2024-01-16T08:51:45;3.60;;;2.08;;
22236;SDS011;11287;48.122;11.536;2024-01-16T08:54:10;4.80;;;2.28;;
22236;SDS011;11287;48.122;11.536;2024-01-16T08:56:35;5.25;;;2.22;;
22236;SDS011;11287;48.122;11.536;2024-01-16T08:59:01;3.60;;;1.73;;
22236;SDS011;11287;48.122;11.536;2024-01-16T09:01:26;4.70;;;2.30;;
22236;SDS011;11287;48.122;11.536;2024-01-16T09:03:52;3.50;;;2.10;;
22236;SDS011;11287;48.122;11.536;2024-01-16T09:06:17;5.18;;;2.40;;
22236;SDS011;11287;48.122;11.536;2024-01-16T09:08:42;5.93;;;2.65;;
22236;SDS011;11287;48.122;11.536;2024-01-16T09:11:09;4.85;;;2.40;;
22236;SDS011;11287;48.122;11.536;2024-01-16T09:13:35;4.78;;;2.50;;
22236;SDS011;11287;48.122;11.536;2024-01-16T09:16:01;3.70;;;2.10;;
22236;SDS011;11287;48.122;11.536;2024-01-16T09:18:27;8.00;;;2.22;;
22236;SDS011;11287;48.122;11.536;2024-01-16T09:20:52;2.70;;;2.08;;
22236;SDS011;11287;48.122;11.536;2024-01-16T09:23:17;4.10;;;2.03;;
22236;SDS011;11287;48.122;11.536;2024-01-16T09:25:42;7.10;;;2.65;;
22236;SDS011;11287;48.122;11.536;2024-01-16T09:28:08;3.47;;;2.13;;
22236;SDS011;11287;48.122;11.536;2024-01-16T09:30:33;5.25;;;2.13;;
22236;SDS011;11287;48.122;11.536;2024-01-16T09:32:59;4.22;;;2.22;;
22236;SDS011;11287;48.122;11.536;2024-01-16T09:35:24;4.50;;;2.50;;
22236;SDS011;11287;48.122;11.536;2024-01-16T09:37:49;4.82;;;2.30;;
22236;SDS011;11287;48.122;11.536;2024-01-16T09:40:16;5.15;;;2.58;;
22236;SDS011;11287;48.122;11.536;2024-01-16T09:42:41;4.35;;;2.85;;
22236;SDS011;11287;48.122;11.536;2024-01-16T09:45:07;4.85;;;2.30;;
22236;SDS011;11287;48.122;11.536;2024-01-16T09:47:34;4.10;;;2.65;;
22236;SDS011;11287;48.122;11.536;2024-01-16T09:49:59;3.08;;;2.28;;
22236;SDS011;11287;48.122;11.536;2024-01-16T09:52:26;4.20;;;2.65;;
22236;SDS011;11287;48.122;11.536;2024-01-16T09:54:51;3.85;;;2.08;;
22236;SDS011;11287;48.122;11.536;2024-01-16T09:57:18;4.13;;;2.17;;
22236;SDS011;11287;48.122;11.536;2024-01-16T09:59:47;6.57;;;2.65;;
22236;SDS011;11287;48.122;11.536;2024-01-16T10:02:13;3.63;;;2.38;;
22236;SDS011;11287;48.122;11.536;2024-01-16T10:04:39;5.32;;;2.33;;
22236;SDS011;11287;48.122;11.536;2024-01-16T10:07:06;6.03;;;2.30;;
22236;SDS011;11287;48.122;11.536;2024-01-16T10:09:33;4.95;;;2.47;;
22236;SDS011;11287;48.122;11.536;2024-01-16T10:11:58;5.60;;;2.35;;
22236;SDS011;11287;48.122;11.536;2024-01-16T10:14:25;5.75;;;2.38;;
22236;SDS011;11287;48.122;11.536;2024-01-16T10:16:57;3.95;;;2.10;;
22236;SDS011;11287;48.122;11.536;2024-01-16T10:19:24;5.65;;;2.42;;
22236;SDS011;11287;48.122;11.536;2024-01-16T10:21:50;4.03;;;2.58;;
22236;SDS011;11287;48.122;11.536;2024-01-16T10:24:16;4.65;;;2.42;;
22236;SDS011;11287;48.122;11.536;2024-01-16T10:26:41;5.28;;;2.38;;
22236;SDS011;11287;48.122;11.536;2024-01-16T10:29:07;3.95;;;2.20;;
22236;SDS011;11287;48.122;11.536;2024-01-16T10:31:33;3.67;;;2.10;;
22236;SDS011;11287;48.122;11.536;2024-01-16T10:33:58;3.72;;;2.08;;
22236;SDS011;11287;48.122;11.536;2024-01-16T10:36:24;7.78;;;2.60;;
22236;SDS011;11287;48.122;11.536;2024-01-16T10:38:50;4.22;;;2.38;;
22236;SDS011;11287;48.122;11.536;2024-01-16T10:41:22;4.07;;;2.38;;
22236;SDS011;11287;48.122;11.536;2024-01-16T10:43:50;4.43;;;2.30;;
22236;SDS011;11287;48.122;11.536;2024-01-16T10:46:28;3.78;;;1.83;;
22236;SDS011;11287;48.122;11.536;2024-01-16T10:49:00;4.93;;;2.35;;
22236;SDS011;11287;48.122;11.536;2024-01-16T10:51:29;4.65;;;2.30;;
22236;SDS011;11287;48.122;11.536;2024-01-16T10:53:58;5.57;;;2.33;;
22236;SDS011;11287;48.122;11.536;2024-01-16T10:56:25;5.70;;;2.72;;
22236;SDS011;11287;48.122;11.536;2024-01-16T11:01:36;3.88;;;2.35;;
22236;SDS011;11287;48.122;11.536;2024-01-16T11:04:02;4.88;;;2.25;;
22236;SDS011;11287;48.122;11.536;2024-01-16T11:06:27;4.93;;;2.10;;
22236;SDS011;11287;48.122;11.536;2024-01-16T11:08:53;5.03;;;2.20;;
22236;SDS011;11287;48.122;11.536;2024-01-16T11:11:19;2.85;;;1.80;;
22236;SDS011;11287;48.122;11.536;2024-01-16T11:13:45;7.75;;;2.03;;
22236;SDS011;11287;48.122;11.536;2024-01-16T11:16:11;5.05;;;2.20;;
22236;SDS011;11287;48.122;11.536;2024-01-16T11:18:36;3.83;;;2.30;;
22236;SDS011;11287;48.122;11.536;2024-01-16T11:21:12;4.22;;;2.20;;
22236;SDS011;11287;48.122;11.536;2024-01-16T11:23:38;6.65;;;1.73;;
22236;SDS011;11287;48.122;11.536;2024-01-16T11:28:52;3.88;;;1.90;;
22236;SDS011;11287;48.122;11.536;2024-01-16T11:31:34;2.40;;;1.60;;
22236;SDS011;11287;48.122;11.536;2024-01-16T11:34:01;2.97;;;1.75;;
22236;SDS011;11287;48.122;11.536;2024-01-16T11:39:23;3.42;;;1.83;;
22236;SDS011;11287;48.122;11.536;2024-01-16T11:41:52;2.17;;;1.40;;
22236;SDS011;11287;48.122;11.536;2024-01-16T11:47:09;2.72;;;1.23;;
22236;SDS011;11287;48.122;11.536;2024-01-16T11:49:41;3.33;;;1.55;;
22236;SDS011;11287;48.122;11.536;2024-01-16T11:52:06;2.80;;;1.60;;
22236;SDS011;11287;48.122;11.536;2024-01-16T11:54:32;2.30;;;1.45;;
22236;SDS011;11287;48.122;11.536;2024-01-16T12:00:04;1.60;;;1.25;;
22236;SDS011;11287;48.122;11.536;2024-01-16T12:02:48;2.85;;;1.98;;
22236;SDS011;11287;48.122;11.536;2024-01-16T12:05:18;3.25;;;1.38;;
22236;SDS011;11287;48.122;11.536;2024-01-16T12:07:50;3.40;;;1.00;;
22236;SDS011;11287;48.122;11.536;2024-01-16T12:10:18;5.60;;;1.00;;
22236;SDS011;11287;48.122;11.536;2024-01-16T12:12:44;1.80;;;1.05;;
22236;SDS011;11287;48.122;11.536;2024-01-16T12:15:13;4.70;;;1.40;;
22236;SDS011;11287;48.122;11.536;2024-01-16T12:17:58;3.40;;;1.00;;
22236;SDS011;11287;48.122;11.536;2024-01-16T12:20:25;2.20;;;1.13;;
22236;SDS011;11287;48.122;11.536;2024-01-16T12:23:07;1.77;;;1.00;;
22236;SDS011;11287;48.122;11.536;2024-01-16T12:25:36;1.80;;;0.90;;
22236;SDS011;11287;48.122;11.536;2024-01-16T12:30:32;2.80;;;1.25;;
22236;SDS011;11287;48.122;11.536;2024-01-16T12:33:08;2.85;;;1.65;;
22236;SDS011;11287;48.122;11.536;2024-01-16T12:35:38;2.08;;;1.05;;
22236;SDS011;11287;48.122;11.536;2024-01-16T12:38:06;2.10;;;1.08;;
22236;SDS011;11287;48.122;11.536;2024-01-16T12:40:34;1.63;;;1.15;;
22236;SDS011;11287;48.122;11.536;2024-01-16T12:43:01;3.60;;;1.17;;
22236;SDS011;11287;48.122;11.536;2024-01-16T12:45:27;4.05;;;1.48;;
22236;SDS011;11287;48.122;11.536;2024-01-16T12:47:54;2.20;;;1.23;;
22236;SDS011;11287;48.122;11.536;2024-01-16T12:50:22;1.48;;;1.27;;
22236;SDS011;11287;48.122;11.536;2024-01-16T12:52:49;2.80;;;1.45;;
22236;SDS011;11287;48.122;11.536;2024-01-16T12:55:15;3.33;;;1.33;;
22236;SDS011;11287;48.122;11.536;2024-01-16T12:57:41;3.80;;;1.10;;
22236;SDS011;11287;48.122;11.536;2024-01-16T13:00:22;3.25;;;1.30;;
22236;SDS011;11287;48.122;11.536;2024-01-16T13:02:49;3.72;;;1.23;;
22236;SDS011;11287;48.122;11.536;2024-01-16T13:05:15;2.10;;;1.27;;
22236;SDS011;11287;48.122;11.536;2024-01-16T13:07:42;3.35;;;1.25;;
22236;SDS011;11287;48.122;11.536;2024-01-16T13:10:08;2.42;;;1.17;;
22236;SDS011;11287;48.122;11.536;2024-01-16T13:12:34;2.63;;;1.00;;
22236;SDS011;11287;48.122;11.536;2024-01-16T13:15:00;4.80;;;1.35;;
22236;SDS011;11287;48.122;11.536;2024-01-16T13:17:26;3.03;;;1.40;;
22236;SDS011;11287;48.122;11.536;2024-01-16T13:19:51;3.80;;;1.50;;
22236;SDS011;11287;48.122;11.536;2024-01-16T13:22:16;4.72;;;1.20;;
22236;SDS011;11287;48.122;11.536;2024-01-16T13:24:42;3.05;;;1.10;;
22236;SDS011;11287;48.122;11.536;2024-01-16T13:27:07;2.08;;;1.10;;
22236;SDS011;11287;48.122;11.536;2024-01-16T13:29:34;1.33;;;0.80;;
22236;SDS011;11287;48.122;11.536;2024-01-16T13:32:03;2.25;;;1.35;;
22236;SDS011;11287;48.122;11.536;2024-01-16T13:34:29;1.40;;;0.95;;
22236;SDS011;11287;48.122;11.536;2024-01-16T13:36:56;1.75;;;1.05;;
22236;SDS011;11287;48.122;11.536;2024-01-16T13:39:24;3.22;;;1.10;;
22236;SDS011;11287;48.122;11.536;2024-01-16T13:41:50;1.10;;;0.80;;
22236;SDS011;11287;48.122;11.536;2024-01-16T13:44:15;1.35;;;1.20;;
22236;SDS011;11287;48.122;11.536;2024-01-16T13:46:41;1.40;;;0.80;;
22236;SDS011;11287;48.122;11.536;2024-01-16T13:49:06;6.32;;;1.20;;
22236;SDS011;11287;48.122;11.536;2024-01-16T13:51:32;3.00;;;0.80;;
22236;SDS011;11287;48.122;11.536;2024-01-16T13:53:57;2.00;;;0.90;;
22236;SDS011;11287;48.122;11.536;2024-01-16T13:56:23;3.00;;;1.65;;
22236;SDS011;11287;48.122;11.536;2024-01-16T13:58:48;1.75;;;1.02;;
22236;SDS011;11287;48.122;11.536;2024-01-16T14:01:13;2.00;;;0.90;;
22236;SDS011;11287;48.122;11.536;2024-01-16T14:03:39;2.67;;;1.27;;
22236;SDS011;11287;48.122;11.536;2024-01-16T14:06:05;0.88;;;0.82;;
22236;SDS011;11287;48.122;11.536;2024-01-16T14:08:32;2.03;;;0.90;;
22236;SDS011;11287;48.122;11.536;2024-01-16T14:10:57;1.10;;;0.80;;
22236;SDS011;11287;48.122;11.536;2024-01-16T14:13:22;1.90;;;0.90;;
22236;SDS011;11287;48.122;11.536;2024-01-16T14:15:47;2.80;;;1.10;;
22236;SDS011;11287;48.122;11.536;2024-01-16T14:18:15;3.08;;;1.52;;
22236;SDS011;11287;48.122;11.536;2024-01-16T14:20:40;6.88;;;1.10;;
22236;SDS011;11287;48.122;11.536;2024-01-16T14:23:06;2.40;;;1.20;;
22236;SDS011;11287;48.122;11.536;2024-01-16T14:25:31;1.58;;;1.23;;
22236;SDS011;11287;48.122;11.536;2024-01-16T14:27:58;2.00;;;1.45;;
22236;SDS011;11287;48.122;11.536;2024-01-16T14:30:24;2.30;;;1.00;;
22236;SDS011;11287;48.122;11.536;2024-01-16T14:32:50;1.30;;;1.00;;
22236;SDS011;11287;48.122;11.536;2024-01-16T14:35:16;1.42;;;1.00;;
22236;SDS011;11287;48.122;11.536;2024-01-16T14:37:42;1.05;;;0.93;;
22236;SDS011;11287;48.122;11.536;2024-01-16T14:40:08;1.55;;;1.25;;
22236;SDS011;11287;48.122;11.536;2024-01-16T14:42:37;3.90;;;1.25;;
22236;SDS011;11287;48.122;11.536;2024-01-16T14:45:06;2.10;;;1.05;;